createdAt,value
2022-09-01T00:00:30.943Z,99121.31
2022-09-01T00:03:04.107Z,99112.69
2022-09-01T00:05:36.456Z,99123.09
2022-09-01T00:08:06.144Z,99108.28
2022-09-01T00:10:34.035Z,99111.69
2022-09-01T00:13:04.546Z,99120.28
2022-09-01T00:15:32.663Z,99108.09
2022-09-01T00:18:00.485Z,99101.13
2022-09-01T00:20:29.543Z,99114.97
2022-09-01T00:23:05.785Z,99127.00
2022-09-01T00:25:37.262Z,99125.16
2022-09-01T00:28:05.388Z,99122.50
2022-09-01T00:30:33.382Z,99128.63
2022-09-01T00:33:01.147Z,99134.63
2022-09-01T00:35:29.090Z,99134.63
2022-09-01T00:37:56.959Z,99126.97
2022-09-01T00:40:25.783Z,99133.03
2022-09-01T00:42:54.021Z,99133.00
2022-09-01T00:45:23.129Z,99124.31
2022-09-01T00:47:51.745Z,99116.47
2022-09-01T00:50:20.892Z,99131.16
2022-09-01T00:52:53.164Z,99126.94
2022-09-01T00:55:33.630Z,99117.44
2022-09-01T00:58:04.363Z,99127.78
2022-09-01T01:00:41.844Z,99132.94
2022-09-01T01:03:14.434Z,99132.19
2022-09-01T01:05:49.060Z,99126.78
2022-09-01T01:08:20.032Z,99127.72
2022-09-01T01:10:48.210Z,99131.91
2022-09-01T01:13:17.278Z,99114.50
2022-09-01T01:15:45.581Z,99126.59
2022-09-01T01:18:16.055Z,99129.94
2022-09-01T01:21:35.621Z,99128.28
2022-09-01T01:24:06.795Z,99120.28
2022-09-01T01:26:34.923Z,99121.88
2022-09-01T01:29:03.913Z,99104.44
2022-09-01T01:31:33.094Z,99119.13
2022-09-01T01:34:02.195Z,99125.03
2022-09-01T01:36:36.495Z,99116.31
2022-09-01T01:39:15.805Z,99126.69
2022-09-01T01:41:49.030Z,99106.63
2022-09-01T01:44:21.783Z,99122.13
2022-09-01T01:46:54.869Z,99118.69
2022-09-01T01:49:29.250Z,99120.31
2022-09-01T01:51:57.099Z,99093.41
2022-09-01T01:54:34.264Z,99120.19
2022-09-01T01:57:04.583Z,99118.38
2022-09-01T01:59:34.051Z,99121.78
2022-09-01T02:02:04.010Z,99102.72
2022-09-01T02:04:34.236Z,99111.50
2022-09-01T02:07:13.499Z,99116.59
2022-09-01T02:09:46.140Z,99105.28
2022-09-01T02:12:19.813Z,99101.66
2022-09-01T02:14:51.068Z,99127.59
2022-09-01T02:17:18.831Z,99118.03
2022-09-01T02:19:47.654Z,99112.72
2022-09-01T02:22:15.517Z,99116.00
2022-09-01T02:24:49.307Z,99110.09
2022-09-01T02:27:22.056Z,99120.38
2022-09-01T02:29:55.504Z,99123.84
2022-09-01T02:32:24.499Z,99112.69
2022-09-01T02:34:54.032Z,99120.34
2022-09-01T02:37:27.826Z,99116.78
2022-09-01T02:39:58.962Z,99128.00
2022-09-01T02:42:29.897Z,99118.50
2022-09-01T02:44:58.971Z,99129.72
2022-09-01T02:47:28.194Z,99128.06
2022-09-01T02:49:58.721Z,99122.97
2022-09-01T02:52:27.041Z,99117.81
2022-09-01T02:54:59.526Z,99126.38
2022-09-01T02:57:28.143Z,99127.13
2022-09-01T02:59:59.203Z,99120.25
2022-09-01T03:02:29.091Z,99123.78
2022-09-01T03:04:57.675Z,99112.63
2022-09-01T03:07:30.084Z,99122.00
2022-09-01T03:09:57.846Z,99103.06
2022-09-01T03:12:25.558Z,99108.13
2022-09-01T03:15:00.783Z,99106.50
2022-09-01T03:17:28.457Z,99112.69
2022-09-01T03:19:56.572Z,99119.84
2022-09-01T03:22:24.299Z,99124.97
2022-09-01T03:24:52.170Z,99100.13
2022-09-01T03:27:19.979Z,99107.97
2022-09-01T03:29:47.873Z,99115.91
2022-09-01T03:32:15.772Z,99123.81
2022-09-01T03:34:43.875Z,99121.38
2022-09-01T03:37:12.368Z,99115.22
2022-09-01T03:39:40.261Z,99124.81
2022-09-01T03:42:11.671Z,99120.59
2022-09-01T03:44:41.178Z,99128.41
2022-09-01T03:47:15.489Z,99136.97
2022-09-01T03:49:49.788Z,99131.84
2022-09-01T03:52:18.458Z,99138.63
2022-09-01T03:54:46.510Z,99124.06
2022-09-01T03:57:14.620Z,99127.69
2022-09-01T03:59:45.462Z,99118.28
2022-09-01T04:02:15.354Z,99127.00
2022-09-01T04:04:43.981Z,99125.47
2022-09-01T04:07:15.489Z,99118.53
2022-09-01T04:09:52.659Z,99121.16
2022-09-01T04:12:20.992Z,99124.59
2022-09-01T04:14:52.511Z,99113.47
2022-09-01T04:17:38.853Z,99119.59
2022-09-01T04:20:09.578Z,99130.91
2022-09-01T04:22:40.667Z,99131.06
2022-09-01T04:25:10.301Z,99117.28
2022-09-01T04:27:40.665Z,99112.97
2022-09-01T04:30:12.716Z,99122.50
2022-09-01T04:32:47.091Z,99113.75
2022-09-01T04:35:17.366Z,99117.28
2022-09-01T04:37:51.220Z,99117.97
2022-09-01T04:40:19.110Z,99128.28
2022-09-01T04:42:47.644Z,99127.44
2022-09-01T04:45:20.533Z,99119.72
2022-09-01T04:47:48.933Z,99121.47
2022-09-01T04:50:18.855Z,99131.03
2022-09-01T04:53:07.858Z,99136.34
2022-09-01T04:55:45.249Z,99126.03
2022-09-01T04:58:18.890Z,99133.09
2022-09-01T05:00:52.393Z,99127.84
2022-09-01T05:03:24.358Z,99132.19
2022-09-01T05:06:01.456Z,99126.16
2022-09-01T05:08:32.587Z,99131.50
2022-09-01T05:11:07.740Z,99140.22
2022-09-01T05:13:43.561Z,99143.84
2022-09-01T05:16:15.992Z,99139.56
2022-09-01T05:18:49.168Z,99144.84
2022-09-01T05:21:22.495Z,99136.28
2022-09-01T05:23:54.535Z,99136.31
2022-09-01T05:26:31.291Z,99134.66
2022-09-01T05:29:02.107Z,99146.81
2022-09-01T05:31:35.133Z,99149.44
2022-09-01T05:34:10.732Z,99138.28
2022-09-01T05:36:44.314Z,99145.94
2022-09-01T05:39:13.162Z,99151.88
2022-09-01T05:41:41.530Z,99153.69
2022-09-01T05:44:10.985Z,99152.00
2022-09-01T05:46:40.162Z,99142.72
2022-09-01T05:49:13.754Z,99147.13
2022-09-01T05:51:45.762Z,99148.00
2022-09-01T05:54:17.773Z,99147.97
2022-09-01T05:56:46.284Z,99142.72
2022-09-01T05:59:25.186Z,99140.97
2022-09-01T06:02:01.199Z,99134.06
2022-09-01T06:04:32.791Z,99135.81
2022-09-01T06:07:09.385Z,99143.38
2022-09-01T06:09:44.380Z,99149.31
2022-09-01T06:12:18.697Z,99136.13
2022-09-01T06:14:48.963Z,99151.59
2022-09-01T06:17:25.437Z,99143.88
2022-09-01T06:19:56.447Z,99146.88
2022-09-01T06:22:28.365Z,99147.31
2022-09-01T06:25:02.845Z,99142.38
2022-09-01T06:27:41.388Z,99139.03
2022-09-01T06:30:23.068Z,99144.09
2022-09-01T06:33:10.784Z,99145.84
2022-09-01T06:35:44.126Z,99143.34
2022-09-01T06:38:13.992Z,99137.31
2022-09-01T06:40:47.699Z,99135.66
2022-09-01T06:43:22.046Z,99143.47
2022-09-01T06:45:55.147Z,99135.75
2022-09-01T06:48:25.031Z,99140.91
2022-09-01T06:51:20.892Z,99135.75
2022-09-01T06:53:59.750Z,99142.69
2022-09-01T06:56:38.927Z,99142.72
2022-09-01T06:59:15.821Z,99145.22
2022-09-01T07:01:49.456Z,99152.72
2022-09-01T07:04:20.444Z,99151.66
2022-09-01T07:07:00.307Z,99161.03
2022-09-01T07:10:17.693Z,99147.97
2022-09-01T07:13:09.026Z,99160.09
2022-09-01T07:18:34.222Z,99159.19
2022-09-01T07:21:35.577Z,99160.16
2022-09-01T07:24:13.435Z,99159.56
2022-09-01T07:27:07.533Z,99160.44
2022-09-01T07:29:36.326Z,99167.22
2022-09-01T07:34:52.536Z,99164.09
2022-09-01T07:43:34.238Z,99163.84
2022-09-01T07:46:37.528Z,99155.25
2022-09-01T07:52:03.960Z,99151.94
2022-09-01T07:54:34.200Z,99156.41
2022-09-01T07:57:04.032Z,99157.09
2022-09-01T07:59:35.526Z,99158.66
2022-09-01T08:02:15.654Z,99147.19
2022-09-01T08:04:49.191Z,99168.56
2022-09-01T08:07:18.609Z,99166.69
2022-09-01T08:09:48.724Z,99168.44
2022-09-01T08:12:17.925Z,99154.91
2022-09-01T08:17:57.583Z,99159.59
2022-09-01T08:20:28.636Z,99144.97
2022-09-01T08:23:02.229Z,99159.63
2022-09-01T08:25:42.592Z,99151.81
2022-09-01T08:28:15.575Z,99145.66
2022-09-01T08:30:52.634Z,99159.34
2022-09-01T08:33:25.190Z,99160.28
2022-09-01T08:35:54.166Z,99162.06
2022-09-01T08:38:23.294Z,99169.94
2022-09-01T08:40:57.049Z,99171.78
2022-09-01T08:43:39.375Z,99176.09
2022-09-01T08:46:17.387Z,99176.06
2022-09-01T08:52:29.769Z,99178.66
2022-09-01T08:55:27.638Z,99173.78
2022-09-01T08:57:59.811Z,99157.47
2022-09-01T09:00:36.276Z,99168.63
2022-09-01T09:03:40.982Z,99178.97
2022-09-01T09:06:29.495Z,99184.88
2022-09-01T09:09:08.278Z,99186.00
2022-09-01T09:12:03.578Z,99180.91
2022-09-01T09:14:55.599Z,99180.09
2022-09-01T09:17:30.931Z,99186.94
2022-09-01T09:20:01.698Z,99186.94
2022-09-01T09:22:32.841Z,99181.72
2022-09-01T09:25:19.242Z,99192.97
2022-09-01T09:27:49.873Z,99196.19
2022-09-01T09:30:28.287Z,99211.72
2022-09-01T09:33:46.821Z,99209.06
2022-09-01T09:35:48.538Z,99205.50
2022-09-01T09:38:28.680Z,99205.59
2022-09-01T09:41:18.241Z,99203.09
2022-09-01T09:43:58.625Z,99200.78
2022-09-01T09:46:32.643Z,99200.00
2022-09-01T09:49:36.717Z,99214.81
2022-09-01T09:52:08.913Z,99214.72
2022-09-01T09:54:41.896Z,99212.16
2022-09-01T09:57:13.626Z,99213.84
2022-09-01T10:00:00.583Z,99219.00
2022-09-01T10:02:45.036Z,99210.22
2022-09-01T10:05:37.246Z,99216.22
2022-09-01T10:08:12.609Z,99229.03
2022-09-01T10:10:48.721Z,99229.78
2022-09-01T10:13:29.270Z,99228.84
2022-09-01T10:16:05.366Z,99228.84
2022-09-01T10:18:45.351Z,99227.22
2022-09-01T10:21:24.208Z,99230.19
2022-09-01T10:23:51.862Z,99220.84
2022-09-01T10:26:25.620Z,99230.41
2022-09-01T10:29:00.136Z,99231.28
2022-09-01T10:31:32.850Z,99234.78
2022-09-01T10:34:06.462Z,99228.81
2022-09-01T10:36:37.826Z,99244.09
2022-09-01T10:39:12.648Z,99242.38
2022-09-01T10:41:47.104Z,99247.72
2022-09-01T10:44:22.096Z,99246.19
2022-09-01T10:46:52.305Z,99239.25
2022-09-01T10:49:46.502Z,99234.13
2022-09-01T10:52:43.963Z,99249.72
2022-09-01T10:55:25.246Z,99246.22
2022-09-01T10:59:31.143Z,99235.06
2022-09-01T11:01:40.486Z,99227.31
2022-09-01T11:03:56.882Z,99232.44
2022-09-01T11:07:11.630Z,99241.13
2022-09-01T11:09:36.266Z,99240.97
2022-09-01T11:12:15.830Z,99243.56
2022-09-01T11:14:54.984Z,99241.72
2022-09-01T11:17:32.546Z,99241.63
2022-09-01T11:20:34.065Z,99232.19
2022-09-01T11:23:12.496Z,99244.16
2022-09-01T11:25:44.293Z,99243.44
2022-09-01T11:28:24.206Z,99238.50
2022-09-01T11:31:00.646Z,99235.13
2022-09-01T11:33:36.049Z,99234.38
2022-09-01T11:36:07.314Z,99239.72
2022-09-01T11:38:49.108Z,99233.81
2022-09-01T11:41:43.107Z,99226.94
2022-09-01T11:44:36.131Z,99224.28
2022-09-01T11:47:12.171Z,99230.22
2022-09-01T11:49:54.367Z,99220.59
2022-09-01T11:52:25.556Z,99229.28
2022-09-01T11:54:55.085Z,99229.38
2022-09-01T11:57:38.496Z,99218.19
2022-09-01T12:00:14.784Z,99212.00
2022-09-01T12:02:50.441Z,99203.69
2022-09-01T12:05:41.042Z,99191.66
2022-09-01T12:08:18.610Z,99200.44
2022-09-01T12:11:01.461Z,99193.66
2022-09-01T12:13:29.750Z,99202.56
2022-09-01T12:16:17.501Z,99197.34
2022-09-01T12:18:48.382Z,99185.59
2022-09-01T12:21:43.539Z,99204.28
2022-09-01T12:24:16.685Z,99208.94
2022-09-01T12:26:49.621Z,99205.50
2022-09-01T12:29:18.525Z,99209.78
2022-09-01T12:31:50.590Z,99203.69
2022-09-01T12:34:27.566Z,99200.25
2022-09-01T12:37:12.395Z,99197.25
2022-09-01T12:39:48.718Z,99176.53
2022-09-01T12:42:19.478Z,99186.38
2022-09-01T12:44:59.819Z,99198.56
2022-09-01T12:47:33.793Z,99198.56
2022-09-01T12:50:29.821Z,99184.66
2022-09-01T12:53:00.532Z,99189.06
2022-09-01T12:58:25.878Z,99176.75
2022-09-01T13:01:01.762Z,99189.78
2022-09-01T13:03:31.518Z,99189.88
2022-09-01T13:06:04.021Z,99196.84
2022-09-01T13:08:34.756Z,99191.63
2022-09-01T13:11:17.474Z,99176.91
2022-09-01T13:13:47.554Z,99178.66
2022-09-01T13:16:15.672Z,99178.63
2022-09-01T13:19:17.981Z,99166.44
2022-09-01T13:21:50.041Z,99175.03
2022-09-01T13:24:18.911Z,99165.47
2022-09-01T13:29:44.023Z,99175.78
2022-09-01T13:32:20.810Z,99178.31
2022-09-01T13:34:51.975Z,99176.59
2022-09-01T13:37:21.487Z,99188.69
2022-09-01T13:39:50.086Z,99182.59
2022-09-01T13:42:19.350Z,99171.38
2022-09-01T13:44:48.566Z,99172.25
2022-09-01T13:47:35.428Z,99167.09
2022-09-01T13:50:11.100Z,99171.38
2022-09-01T13:52:55.223Z,99171.38
2022-09-01T13:55:29.614Z,99167.84
2022-09-01T13:57:59.086Z,99164.38
2022-09-01T14:00:33.987Z,99170.38
2022-09-01T14:03:07.728Z,99161.69
2022-09-01T14:05:39.042Z,99165.97
2022-09-01T14:08:08.452Z,99141.72
2022-09-01T14:10:42.186Z,99176.28
2022-09-01T14:13:12.773Z,99163.31
2022-09-01T14:15:40.861Z,99175.44
2022-09-01T14:18:08.915Z,99157.19
2022-09-01T14:20:39.812Z,99153.75
2022-09-01T14:23:10.894Z,99183.16
2022-09-01T14:25:44.126Z,99181.41
2022-09-01T14:28:13.372Z,99177.06
2022-09-01T14:30:46.107Z,99177.00
2022-09-01T14:33:13.811Z,99193.38
2022-09-01T14:35:47.486Z,99220.00
2022-09-01T14:38:18.310Z,99216.25
2022-09-01T14:40:52.685Z,99230.66
2022-09-01T14:43:21.930Z,99238.88
2022-09-01T14:45:50.201Z,99240.34
2022-09-01T14:48:20.980Z,99228.00
2022-09-01T14:50:51.257Z,99244.31
2022-09-01T14:53:19.637Z,99220.06
2022-09-01T14:55:47.932Z,99243.44
2022-09-01T14:58:18.907Z,99230.53
2022-09-01T15:01:00.403Z,99239.09
2022-09-01T15:03:35.059Z,99215.44
2022-09-01T15:06:02.619Z,99234.38
2022-09-01T15:08:30.280Z,99239.41
2022-09-01T15:10:58.120Z,99223.66
2022-09-01T15:13:26.027Z,99239.16
2022-09-01T15:16:01.465Z,99212.91
2022-09-01T15:18:29.351Z,99231.84
2022-09-01T15:20:56.939Z,99228.34
2022-09-01T15:23:29.266Z,99205.72
2022-09-01T15:26:01.113Z,99228.13
2022-09-01T15:28:28.916Z,99225.53
2022-09-01T15:30:57.475Z,99232.28
2022-09-01T15:33:25.164Z,99233.88
2022-09-01T15:35:53.824Z,99234.78
2022-09-01T15:38:25.015Z,99225.22
2022-09-01T15:40:58.295Z,99215.69
2022-09-01T15:43:29.574Z,99233.13
2022-09-01T15:45:59.116Z,99223.84
2022-09-01T15:48:29.189Z,99222.94
2022-09-01T15:51:22.967Z,99235.25
2022-09-01T15:53:52.757Z,99229.84
2022-09-01T15:56:21.565Z,99220.22
2022-09-01T15:59:00.911Z,99226.16
2022-09-01T16:01:32.861Z,99221.69
2022-09-01T16:04:01.651Z,99221.66
2022-09-01T16:06:30.381Z,99221.56
2022-09-01T16:09:01.412Z,99219.06
2022-09-01T16:11:29.576Z,99219.19
2022-09-01T16:14:02.039Z,99212.25
2022-09-01T16:16:56.668Z,99219.19
2022-09-01T16:19:59.971Z,99226.09
2022-09-01T16:22:35.655Z,99218.97
2022-09-01T16:25:17.912Z,99220.63
2022-09-01T16:27:46.509Z,99216.09
2022-09-01T16:30:22.525Z,99227.22
2022-09-01T16:32:50.423Z,99229.69
2022-09-01T16:35:20.969Z,99228.66
2022-09-01T16:38:22.986Z,99229.69
2022-09-01T16:41:04.080Z,99232.03
2022-09-01T16:44:10.753Z,99237.13
2022-09-01T16:47:10.590Z,99238.75
2022-09-01T16:49:53.483Z,99242.03
2022-09-01T16:52:29.717Z,99241.88
2022-09-01T16:55:51.330Z,99247.03
2022-09-01T16:58:31.996Z,99245.13
2022-09-01T17:01:17.341Z,99250.25
2022-09-01T17:04:28.303Z,99253.78
2022-09-01T17:07:10.955Z,99253.03
2022-09-01T17:09:45.826Z,99240.16
2022-09-01T17:12:27.879Z,99249.88
2022-09-01T17:15:18.321Z,99248.22
2022-09-01T17:18:23.429Z,99259.56
2022-09-01T17:21:02.413Z,99244.78
2022-09-01T17:23:40.999Z,99227.31
2022-09-01T17:26:19.876Z,99249.81
2022-09-01T17:29:09.026Z,99249.78
2022-09-01T17:31:51.742Z,99255.66
2022-09-01T17:34:34.063Z,99253.06
2022-09-01T17:37:23.119Z,99248.81
2022-09-01T17:40:10.585Z,99249.59
2022-09-01T17:43:19.460Z,99254.06
2022-09-01T17:45:51.357Z,99252.25
2022-09-01T17:48:27.206Z,99253.16
2022-09-01T17:51:04.783Z,99254.00
2022-09-01T17:53:57.282Z,99255.59
2022-09-01T17:56:46.480Z,99254.41
2022-09-01T17:59:29.271Z,99255.13
2022-09-01T18:02:38.144Z,99255.13
2022-09-01T18:05:19.787Z,99239.22
2022-09-01T18:07:56.921Z,99251.25
2022-09-01T18:10:39.312Z,99235.69
2022-09-01T18:13:15.963Z,99230.31
2022-09-01T18:15:53.076Z,99229.50
2022-09-01T18:18:35.069Z,99251.22
2022-09-01T18:21:24.749Z,99231.16
2022-09-01T18:24:17.217Z,99251.94
2022-09-01T18:26:50.458Z,99246.50
2022-09-01T18:29:19.011Z,99245.53
2022-09-01T18:32:18.581Z,99252.44
2022-09-01T18:34:56.172Z,99252.38
2022-09-01T18:37:51.680Z,99234.28
2022-09-01T18:40:33.979Z,99242.13
2022-09-01T18:43:31.205Z,99251.66
2022-09-01T18:46:25.836Z,99246.50
2022-09-01T18:49:10.444Z,99235.16
2022-09-01T18:51:56.966Z,99242.47
2022-09-01T18:54:47.396Z,99246.81
2022-09-01T18:57:21.362Z,99232.88
2022-09-01T18:59:51.575Z,99248.50
2022-09-01T19:02:37.396Z,99244.38
2022-09-01T19:05:17.530Z,99240.19
2022-09-01T19:07:53.221Z,99236.84
2022-09-01T19:10:35.150Z,99250.75
2022-09-01T19:13:19.056Z,99235.91
2022-09-01T19:16:14.154Z,99241.19
2022-09-01T19:18:48.065Z,99234.81
2022-09-01T19:21:24.598Z,99239.84
2022-09-01T19:24:06.073Z,99240.66
2022-09-01T19:26:47.591Z,99239.81
2022-09-01T19:29:27.361Z,99211.25
2022-09-01T19:32:05.675Z,99241.50
2022-09-01T19:34:50.556Z,99221.41
2022-09-01T19:37:18.511Z,99215.94
2022-09-01T19:39:52.086Z,99216.44
2022-09-01T19:42:29.397Z,99226.72
2022-09-01T19:45:07.101Z,99231.72
2022-09-01T19:47:42.742Z,99230.72
2022-09-01T19:50:47.512Z,99225.59
2022-09-01T19:53:33.977Z,99231.41
2022-09-01T19:56:21.716Z,99220.75
2022-09-01T19:59:21.003Z,99225.69
2022-09-01T20:02:03.931Z,99229.78
2022-09-01T20:05:14.627Z,99233.44
2022-09-01T20:07:50.868Z,99244.28
2022-09-01T20:10:24.426Z,99223.34
2022-09-01T20:13:14.826Z,99241.72
2022-09-01T20:16:01.951Z,99242.53
2022-09-01T20:18:39.935Z,99245.97
2022-09-01T20:21:20.818Z,99239.09
2022-09-01T20:24:04.354Z,99233.34
2022-09-01T20:26:43.270Z,99219.38
2022-09-01T20:30:00.281Z,99238.75
2022-09-01T20:32:51.745Z,99235.44
2022-09-01T20:35:48.907Z,99239.91
2022-09-01T20:38:43.397Z,99237.41
2022-09-01T20:41:26.110Z,99229.91
2022-09-01T20:43:57.729Z,99233.38
2022-09-01T20:46:26.641Z,99236.91
2022-09-01T20:48:54.606Z,99233.56
2022-09-01T20:51:50.620Z,99229.44
2022-09-01T20:54:49.107Z,99221.47
2022-09-01T20:57:22.637Z,99234.63
2022-09-01T20:59:52.451Z,99230.75
2022-09-01T21:02:32.291Z,99229.72
2022-09-01T21:05:20.912Z,99232.09
2022-09-01T21:08:11.389Z,99235.19
2022-09-01T21:11:13.996Z,99225.59
2022-09-01T21:13:55.110Z,99226.91
2022-09-01T21:16:28.486Z,99232.63
2022-09-01T21:19:13.983Z,99239.38
2022-09-01T21:21:47.325Z,99226.28
2022-09-01T21:24:15.079Z,99243.31
2022-09-01T21:26:44.620Z,99236.38
2022-09-01T21:29:49.870Z,99230.41
2022-09-01T21:32:20.603Z,99233.53
2022-09-01T21:34:48.980Z,99220.31
2022-09-01T21:37:17.836Z,99230.69
2022-09-01T21:39:45.583Z,99226.34
2022-09-01T21:42:14.075Z,99237.28
2022-09-01T21:44:45.104Z,99217.03
2022-09-01T21:47:13.033Z,99232.66
2022-09-01T21:49:40.950Z,99231.59
2022-09-01T21:52:08.591Z,99212.38
2022-09-01T21:54:38.456Z,99223.72
2022-09-01T21:57:13.269Z,99234.75
2022-09-01T21:59:42.995Z,99209.56
2022-09-01T22:02:16.888Z,99210.38
2022-09-01T22:04:48.964Z,99212.81
2022-09-01T22:07:19.175Z,99221.41
2022-09-01T22:09:47.795Z,99218.53
2022-09-01T22:12:15.422Z,99212.53
2022-09-01T22:14:42.916Z,99235.78
2022-09-01T22:17:10.577Z,99225.19
2022-09-01T22:19:38.258Z,99228.69
2022-09-01T22:22:08.810Z,99219.09
2022-09-01T22:24:54.132Z,99244.88
2022-09-01T22:27:21.742Z,99219.56
2022-09-01T22:29:49.372Z,99242.22
2022-09-01T22:32:16.951Z,99238.81
2022-09-01T22:34:44.639Z,99237.75
2022-09-01T22:37:12.143Z,99247.47
2022-09-01T22:39:39.672Z,99254.53
2022-09-01T22:42:07.270Z,99252.25
2022-09-01T22:44:34.808Z,99233.34
2022-09-01T22:47:02.290Z,99254.19
2022-09-01T22:49:30.013Z,99255.06
2022-09-01T22:51:57.509Z,99222.88
2022-09-01T22:54:25.398Z,99244.97
2022-09-01T22:56:53.230Z,99248.56
2022-09-01T22:59:24.492Z,99228.75
2022-09-01T23:01:52.033Z,99248.84
2022-09-01T23:04:19.712Z,99245.38
2022-09-01T23:06:52.682Z,99249.84
2022-09-01T23:09:21.284Z,99249.84
2022-09-01T23:11:49.750Z,99255.06
2022-09-01T23:14:18.632Z,99239.25
2022-09-01T23:16:47.338Z,99230.41
2022-09-01T23:19:21.109Z,99252.13
2022-09-01T23:21:49.822Z,99263.56
2022-09-01T23:24:20.106Z,99264.38
2022-09-01T23:26:48.658Z,99251.31
2022-09-01T23:29:16.691Z,99259.25
2022-09-01T23:31:44.359Z,99268.69
2022-09-01T23:34:19.723Z,99251.38
2022-09-01T23:36:49.646Z,99266.19
2022-09-01T23:39:17.592Z,99244.53
2022-09-01T23:41:45.398Z,99262.56
2022-09-01T23:44:30.531Z,99260.88
2022-09-01T23:47:00.774Z,99268.06
2022-09-01T23:49:31.058Z,99249.75
2022-09-01T23:51:58.728Z,99250.63
2022-09-01T23:54:29.077Z,99268.13
2022-09-01T23:56:59.792Z,99277.53
2022-09-01T23:59:28.776Z,99273.19
